sensor_id;sensor_type;location;lat;lon;timestamp;temperature;humidity
324;DHT22;149;51.094;17.002;2022-07-18T00:01:20;14.30;99.90
324;DHT22;149;51.094;17.002;2022-07-18T00:03:47;14.30;99.90
324;DHT22;149;51.094;17.002;2022-07-18T00:06:14;14.30;99.90
324;DHT22;149;51.094;17.002;2022-07-18T00:08:42;14.30;99.90
324;DHT22;149;51.094;17.002;2022-07-18T00:11:09;14.30;99.90
324;DHT22;149;51.094;17.002;2022-07-18T00:13:37;14.30;99.90
324;DHT22;149;51.094;17.002;2022-07-18T00:16:05;14.30;99.90
324;DHT22;149;51.094;17.002;2022-07-18T00:18:33;14.20;99.90
324;DHT22;149;51.094;17.002;2022-07-18T00:21:00;14.20;99.90
324;DHT22;149;51.094;17.002;2022-07-18T00:23:27;14.20;99.90
324;DHT22;149;51.094;17.002;2022-07-18T00:25:54;14.20;99.90
324;DHT22;149;51.094;17.002;2022-07-18T00:28:22;14.10;99.90
324;DHT22;149;51.094;17.002;2022-07-18T00:30:49;14.10;99.90
324;DHT22;149;51.094;17.002;2022-07-18T00:33:16;14.10;99.90
324;DHT22;149;51.094;17.002;2022-07-18T00:35:44;14.10;99.90
324;DHT22;149;51.094;17.002;2022-07-18T00:38:11;14.10;99.90
324;DHT22;149;51.094;17.002;2022-07-18T00:40:39;14.10;99.90
324;DHT22;149;51.094;17.002;2022-07-18T00:43:06;14.00;99.90
324;DHT22;149;51.094;17.002;2022-07-18T00:45:37;14.00;99.90
324;DHT22;149;51.094;17.002;2022-07-18T00:48:06;13.90;99.90
324;DHT22;149;51.094;17.002;2022-07-18T00:50:33;13.90;99.90
324;DHT22;149;51.094;17.002;2022-07-18T00:53:01;13.90;99.90
324;DHT22;149;51.094;17.002;2022-07-18T00:55:28;13.80;99.90
324;DHT22;149;51.094;17.002;2022-07-18T00:57:57;13.70;99.90
324;DHT22;149;51.094;17.002;2022-07-18T01:00:25;13.70;99.90
324;DHT22;149;51.094;17.002;2022-07-18T01:03:11;13.70;99.90
324;DHT22;149;51.094;17.002;2022-07-18T01:05:38;13.80;99.90
324;DHT22;149;51.094;17.002;2022-07-18T01:08:05;13.80;99.90
324;DHT22;149;51.094;17.002;2022-07-18T01:10:32;13.80;99.90
324;DHT22;149;51.094;17.002;2022-07-18T01:13:00;13.80;99.90
324;DHT22;149;51.094;17.002;2022-07-18T01:15:28;13.50;99.90
324;DHT22;149;51.094;17.002;2022-07-18T01:17:55;13.40;99.90
324;DHT22;149;51.094;17.002;2022-07-18T01:20:29;13.40;99.90
324;DHT22;149;51.094;17.002;2022-07-18T01:22:58;13.50;99.90
324;DHT22;149;51.094;17.002;2022-07-18T01:25:27;13.60;99.90
324;DHT22;149;51.094;17.002;2022-07-18T01:27:54;13.60;99.90
324;DHT22;149;51.094;17.002;2022-07-18T01:30:24;13.60;99.90
324;DHT22;149;51.094;17.002;2022-07-18T01:32:59;13.60;99.90
324;DHT22;149;51.094;17.002;2022-07-18T01:35:28;13.50;99.90
324;DHT22;149;51.094;17.002;2022-07-18T01:37:58;13.50;99.90
324;DHT22;149;51.094;17.002;2022-07-18T01:40:26;13.40;99.90
324;DHT22;149;51.094;17.002;2022-07-18T01:42:53;13.40;99.90
324;DHT22;149;51.094;17.002;2022-07-18T01:45:21;13.40;99.90
324;DHT22;149;51.094;17.002;2022-07-18T01:47:49;13.30;99.90
324;DHT22;149;51.094;17.002;2022-07-18T01:50:17;13.30;99.90
324;DHT22;149;51.094;17.002;2022-07-18T01:52:44;13.40;99.90
324;DHT22;149;51.094;17.002;2022-07-18T01:55:11;13.40;99.90
324;DHT22;149;51.094;17.002;2022-07-18T01:57:39;13.30;99.90
324;DHT22;149;51.094;17.002;2022-07-18T02:00:08;13.40;99.90
324;DHT22;149;51.094;17.002;2022-07-18T02:02:36;13.30;99.90
324;DHT22;149;51.094;17.002;2022-07-18T02:05:05;13.40;99.90
324;DHT22;149;51.094;17.002;2022-07-18T02:07:37;13.40;99.90
324;DHT22;149;51.094;17.002;2022-07-18T02:10:08;13.40;99.90
324;DHT22;149;51.094;17.002;2022-07-18T02:12:36;13.30;99.90
324;DHT22;149;51.094;17.002;2022-07-18T02:15:06;13.20;99.90
324;DHT22;149;51.094;17.002;2022-07-18T02:17:34;13.20;99.90
324;DHT22;149;51.094;17.002;2022-07-18T02:20:02;13.20;99.90
324;DHT22;149;51.094;17.002;2022-07-18T02:22:29;13.20;99.90
324;DHT22;149;51.094;17.002;2022-07-18T02:24:56;13.20;99.90
324;DHT22;149;51.094;17.002;2022-07-18T02:27:24;13.30;99.90
324;DHT22;149;51.094;17.002;2022-07-18T02:29:52;13.30;99.90
324;DHT22;149;51.094;17.002;2022-07-18T02:32:19;13.40;99.90
324;DHT22;149;51.094;17.002;2022-07-18T02:34:46;13.40;99.90
324;DHT22;149;51.094;17.002;2022-07-18T02:37:14;13.40;99.90
324;DHT22;149;51.094;17.002;2022-07-18T02:39:41;13.40;99.90
324;DHT22;149;51.094;17.002;2022-07-18T02:42:09;13.50;99.90
324;DHT22;149;51.094;17.002;2022-07-18T02:44:36;13.50;99.90
324;DHT22;149;51.094;17.002;2022-07-18T02:47:04;13.50;99.90
324;DHT22;149;51.094;17.002;2022-07-18T02:49:31;13.50;99.90
324;DHT22;149;51.094;17.002;2022-07-18T02:52:04;13.30;99.90
324;DHT22;149;51.094;17.002;2022-07-18T02:54:34;13.30;99.90
324;DHT22;149;51.094;17.002;2022-07-18T02:57:02;13.40;99.90
324;DHT22;149;51.094;17.002;2022-07-18T02:59:30;13.50;99.90
324;DHT22;149;51.094;17.002;2022-07-18T03:01:58;13.50;99.90
324;DHT22;149;51.094;17.002;2022-07-18T03:04:25;13.50;99.90
324;DHT22;149;51.094;17.002;2022-07-18T03:06:52;13.60;99.90
324;DHT22;149;51.094;17.002;2022-07-18T03:09:20;13.50;99.90
324;DHT22;149;51.094;17.002;2022-07-18T03:11:48;13.50;99.90
324;DHT22;149;51.094;17.002;2022-07-18T03:14:15;13.50;99.90
324;DHT22;149;51.094;17.002;2022-07-18T03:16:43;13.60;99.90
324;DHT22;149;51.094;17.002;2022-07-18T03:19:10;13.70;99.90
324;DHT22;149;51.094;17.002;2022-07-18T03:21:37;13.70;99.90
324;DHT22;149;51.094;17.002;2022-07-18T03:24:04;13.70;99.90
324;DHT22;149;51.094;17.002;2022-07-18T03:26:32;13.80;99.90
324;DHT22;149;51.094;17.002;2022-07-18T03:28:59;13.90;99.90
324;DHT22;149;51.094;17.002;2022-07-18T03:31:27;14.00;99.90
324;DHT22;149;51.094;17.002;2022-07-18T03:33:54;14.00;99.90
324;DHT22;149;51.094;17.002;2022-07-18T03:36:22;14.00;99.90
324;DHT22;149;51.094;17.002;2022-07-18T03:38:49;14.00;99.90
324;DHT22;149;51.094;17.002;2022-07-18T03:41:16;14.20;99.90
324;DHT22;149;51.094;17.002;2022-07-18T03:43:44;14.30;99.90
324;DHT22;149;51.094;17.002;2022-07-18T03:46:11;14.40;99.90
324;DHT22;149;51.094;17.002;2022-07-18T03:48:38;14.50;99.90
324;DHT22;149;51.094;17.002;2022-07-18T03:51:06;14.60;99.90
324;DHT22;149;51.094;17.002;2022-07-18T03:53:33;14.70;99.90
324;DHT22;149;51.094;17.002;2022-07-18T03:56:01;14.80;99.90
324;DHT22;149;51.094;17.002;2022-07-18T03:58:28;15.00;99.90
324;DHT22;149;51.094;17.002;2022-07-18T04:00:55;15.00;99.90
324;DHT22;149;51.094;17.002;2022-07-18T04:03:23;15.10;99.90
324;DHT22;149;51.094;17.002;2022-07-18T04:05:50;15.30;99.90
324;DHT22;149;51.094;17.002;2022-07-18T04:08:18;15.40;99.90
324;DHT22;149;51.094;17.002;2022-07-18T04:10:45;15.60;99.90
324;DHT22;149;51.094;17.002;2022-07-18T04:13:13;15.70;99.90
324;DHT22;149;51.094;17.002;2022-07-18T04:15:41;15.70;99.90
324;DHT22;149;51.094;17.002;2022-07-18T04:18:08;15.80;99.90
324;DHT22;149;51.094;17.002;2022-07-18T04:20:36;15.90;99.90
324;DHT22;149;51.094;17.002;2022-07-18T04:23:08;15.80;99.90
324;DHT22;149;51.094;17.002;2022-07-18T04:25:40;15.90;99.90
324;DHT22;149;51.094;17.002;2022-07-18T04:28:10;15.90;99.90
324;DHT22;149;51.094;17.002;2022-07-18T04:30:39;16.00;99.90
324;DHT22;149;51.094;17.002;2022-07-18T04:33:08;16.20;99.90
324;DHT22;149;51.094;17.002;2022-07-18T04:35:36;16.30;99.90
324;DHT22;149;51.094;17.002;2022-07-18T04:38:06;16.30;99.90
324;DHT22;149;51.094;17.002;2022-07-18T04:40:34;16.20;99.90
324;DHT22;149;51.094;17.002;2022-07-18T04:43:02;16.10;99.90
324;DHT22;149;51.094;17.002;2022-07-18T04:45:29;16.40;99.90
324;DHT22;149;51.094;17.002;2022-07-18T04:47:57;16.60;99.90
324;DHT22;149;51.094;17.002;2022-07-18T04:50:25;16.80;99.90
324;DHT22;149;51.094;17.002;2022-07-18T04:52:52;16.80;99.90
324;DHT22;149;51.094;17.002;2022-07-18T04:55:21;16.90;99.90
324;DHT22;149;51.094;17.002;2022-07-18T04:57:49;17.10;99.90
324;DHT22;149;51.094;17.002;2022-07-18T05:00:19;16.90;99.90
324;DHT22;149;51.094;17.002;2022-07-18T05:02:49;16.90;99.90
324;DHT22;149;51.094;17.002;2022-07-18T05:05:18;17.10;99.90
324;DHT22;149;51.094;17.002;2022-07-18T05:07:47;17.40;99.90
324;DHT22;149;51.094;17.002;2022-07-18T05:10:17;17.40;99.90
324;DHT22;149;51.094;17.002;2022-07-18T05:12:49;17.30;99.90
324;DHT22;149;51.094;17.002;2022-07-18T05:15:18;17.40;99.90
324;DHT22;149;51.094;17.002;2022-07-18T05:17:45;17.50;99.90
324;DHT22;149;51.094;17.002;2022-07-18T05:20:15;17.60;99.90
324;DHT22;149;51.094;17.002;2022-07-18T05:22:43;17.70;99.90
324;DHT22;149;51.094;17.002;2022-07-18T05:25:11;17.80;99.90
324;DHT22;149;51.094;17.002;2022-07-18T05:27:40;18.20;99.90
324;DHT22;149;51.094;17.002;2022-07-18T05:30:10;18.60;99.90
324;DHT22;149;51.094;17.002;2022-07-18T05:32:41;19.00;99.90
324;DHT22;149;51.094;17.002;2022-07-18T05:35:10;19.50;99.90
324;DHT22;149;51.094;17.002;2022-07-18T05:37:39;19.90;99.90
324;DHT22;149;51.094;17.002;2022-07-18T05:40:08;20.20;99.90
324;DHT22;149;51.094;17.002;2022-07-18T05:42:36;20.50;99.90
324;DHT22;149;51.094;17.002;2022-07-18T05:45:20;20.80;99.90
324;DHT22;149;51.094;17.002;2022-07-18T05:47:47;20.90;99.90
324;DHT22;149;51.094;17.002;2022-07-18T05:50:14;21.30;99.90
324;DHT22;149;51.094;17.002;2022-07-18T05:52:41;21.40;99.90
324;DHT22;149;51.094;17.002;2022-07-18T05:55:09;21.40;99.90
324;DHT22;149;51.094;17.002;2022-07-18T05:57:36;21.40;99.90
324;DHT22;149;51.094;17.002;2022-07-18T06:00:06;21.40;99.90
324;DHT22;149;51.094;17.002;2022-07-18T06:02:35;21.40;99.90
324;DHT22;149;51.094;17.002;2022-07-18T06:05:06;21.30;99.90
324;DHT22;149;51.094;17.002;2022-07-18T06:07:47;21.30;99.90
324;DHT22;149;51.094;17.002;2022-07-18T06:10:15;21.20;99.90
324;DHT22;149;51.094;17.002;2022-07-18T06:12:42;20.90;99.90
324;DHT22;149;51.094;17.002;2022-07-18T06:15:10;20.80;99.90
324;DHT22;149;51.094;17.002;2022-07-18T06:17:37;20.80;99.90
324;DHT22;149;51.094;17.002;2022-07-18T06:20:05;20.70;99.90
324;DHT22;149;51.094;17.002;2022-07-18T06:22:35;20.70;99.90
324;DHT22;149;51.094;17.002;2022-07-18T06:25:04;21.00;99.90
324;DHT22;149;51.094;17.002;2022-07-18T06:27:31;21.70;99.90
324;DHT22;149;51.094;17.002;2022-07-18T06:29:58;22.30;99.90
324;DHT22;149;51.094;17.002;2022-07-18T06:32:26;23.40;99.90
324;DHT22;149;51.094;17.002;2022-07-18T06:34:53;23.70;99.90
324;DHT22;149;51.094;17.002;2022-07-18T06:37:21;23.80;99.90
324;DHT22;149;51.094;17.002;2022-07-18T06:39:48;24.10;99.90
324;DHT22;149;51.094;17.002;2022-07-18T06:42:15;24.10;99.90
324;DHT22;149;51.094;17.002;2022-07-18T06:44:42;24.40;99.90
324;DHT22;149;51.094;17.002;2022-07-18T06:47:10;24.60;99.90
324;DHT22;149;51.094;17.002;2022-07-18T06:49:37;24.70;99.90
324;DHT22;149;51.094;17.002;2022-07-18T06:52:05;24.80;99.90
324;DHT22;149;51.094;17.002;2022-07-18T06:54:32;25.40;99.90
324;DHT22;149;51.094;17.002;2022-07-18T06:57:02;25.80;99.60
324;DHT22;149;51.094;17.002;2022-07-18T06:59:34;26.20;99.30
324;DHT22;149;51.094;17.002;2022-07-18T07:02:01;27.10;95.00
324;DHT22;149;51.094;17.002;2022-07-18T07:04:29;28.30;92.10
324;DHT22;149;51.094;17.002;2022-07-18T07:06:57;29.10;88.30
324;DHT22;149;51.094;17.002;2022-07-18T07:09:24;29.40;84.60
324;DHT22;149;51.094;17.002;2022-07-18T07:11:51;29.90;79.50
324;DHT22;149;51.094;17.002;2022-07-18T07:14:19;30.00;80.60
324;DHT22;149;51.094;17.002;2022-07-18T07:16:46;30.30;77.50
324;DHT22;149;51.094;17.002;2022-07-18T07:19:13;32.00;70.40
324;DHT22;149;51.094;17.002;2022-07-18T07:21:40;33.50;63.80
324;DHT22;149;51.094;17.002;2022-07-18T07:24:07;34.60;58.80
324;DHT22;149;51.094;17.002;2022-07-18T07:26:35;35.90;55.90
324;DHT22;149;51.094;17.002;2022-07-18T07:29:02;37.60;52.50
324;DHT22;149;51.094;17.002;2022-07-18T07:31:29;39.10;47.70
324;DHT22;149;51.094;17.002;2022-07-18T07:33:57;39.20;45.30
324;DHT22;149;51.094;17.002;2022-07-18T07:36:31;39.70;44.70
324;DHT22;149;51.094;17.002;2022-07-18T07:38:59;41.30;42.80
324;DHT22;149;51.094;17.002;2022-07-18T07:41:26;41.40;41.20
324;DHT22;149;51.094;17.002;2022-07-18T07:43:54;42.40;39.20
324;DHT22;149;51.094;17.002;2022-07-18T07:46:21;42.10;38.00
324;DHT22;149;51.094;17.002;2022-07-18T07:48:48;42.20;38.00
324;DHT22;149;51.094;17.002;2022-07-18T07:51:15;40.60;38.40
324;DHT22;149;51.094;17.002;2022-07-18T07:53:50;42.00;38.10
324;DHT22;149;51.094;17.002;2022-07-18T07:56:17;42.20;36.90
324;DHT22;149;51.094;17.002;2022-07-18T07:58:46;41.40;37.30
324;DHT22;149;51.094;17.002;2022-07-18T08:01:14;39.90;37.80
324;DHT22;149;51.094;17.002;2022-07-18T08:03:44;41.30;37.50
324;DHT22;149;51.094;17.002;2022-07-18T08:06:13;42.90;36.90
324;DHT22;149;51.094;17.002;2022-07-18T08:08:40;43.30;35.40
324;DHT22;149;51.094;17.002;2022-07-18T08:11:08;43.00;35.90
324;DHT22;149;51.094;17.002;2022-07-18T08:13:35;43.20;35.70
324;DHT22;149;51.094;17.002;2022-07-18T08:16:03;43.60;35.10
324;DHT22;149;51.094;17.002;2022-07-18T08:18:31;43.70;34.50
324;DHT22;149;51.094;17.002;2022-07-18T08:20:58;42.30;34.50
324;DHT22;149;51.094;17.002;2022-07-18T08:23:25;39.40;37.10
324;DHT22;149;51.094;17.002;2022-07-18T08:25:52;40.60;36.60
324;DHT22;149;51.094;17.002;2022-07-18T08:28:19;41.20;36.00
324;DHT22;149;51.094;17.002;2022-07-18T08:30:46;42.20;35.70
324;DHT22;149;51.094;17.002;2022-07-18T08:33:14;42.70;35.10
324;DHT22;149;51.094;17.002;2022-07-18T08:35:42;42.90;35.20
324;DHT22;149;51.094;17.002;2022-07-18T08:38:09;43.50;34.50
324;DHT22;149;51.094;17.002;2022-07-18T08:40:37;44.20;33.80
324;DHT22;149;51.094;17.002;2022-07-18T08:43:05;45.00;33.30
324;DHT22;149;51.094;17.002;2022-07-18T08:45:48;45.30;32.50
324;DHT22;149;51.094;17.002;2022-07-18T08:48:16;45.50;32.40
324;DHT22;149;51.094;17.002;2022-07-18T08:50:47;44.80;33.00
324;DHT22;149;51.094;17.002;2022-07-18T08:53:16;45.40;32.50
324;DHT22;149;51.094;17.002;2022-07-18T08:55:44;45.60;31.80
324;DHT22;149;51.094;17.002;2022-07-18T08:58:12;46.10;31.50
324;DHT22;149;51.094;17.002;2022-07-18T09:01:01;47.00;31.10
324;DHT22;149;51.094;17.002;2022-07-18T09:03:28;47.30;30.80
324;DHT22;149;51.094;17.002;2022-07-18T09:06:23;46.00;31.30
324;DHT22;149;51.094;17.002;2022-07-18T09:08:59;45.10;31.10
324;DHT22;149;51.094;17.002;2022-07-18T09:11:27;43.50;32.00
324;DHT22;149;51.094;17.002;2022-07-18T09:17:49;41.00;33.80
324;DHT22;149;51.094;17.002;2022-07-18T09:22:35;38.80;35.40
324;DHT22;149;51.094;17.002;2022-07-18T09:25:14;39.80;35.50
324;DHT22;149;51.094;17.002;2022-07-18T09:27:46;40.60;34.60
324;DHT22;149;51.094;17.002;2022-07-18T09:30:31;41.30;33.90
324;DHT22;149;51.094;17.002;2022-07-18T09:35:35;41.60;34.30
324;DHT22;149;51.094;17.002;2022-07-18T09:40:40;40.30;34.90
324;DHT22;149;51.094;17.002;2022-07-18T09:43:15;37.30;37.90
324;DHT22;149;51.094;17.002;2022-07-18T09:45:43;34.80;40.10
324;DHT22;149;51.094;17.002;2022-07-18T09:50:56;31.50;43.50
324;DHT22;149;51.094;17.002;2022-07-18T09:53:27;30.80;44.70
324;DHT22;149;51.094;17.002;2022-07-18T09:56:02;30.40;45.50
324;DHT22;149;51.094;17.002;2022-07-18T09:58:35;30.00;46.30
324;DHT22;149;51.094;17.002;2022-07-18T10:01:04;29.50;46.80
324;DHT22;149;51.094;17.002;2022-07-18T10:03:32;28.60;47.00
324;DHT22;149;51.094;17.002;2022-07-18T10:06:00;28.40;48.30
324;DHT22;149;51.094;17.002;2022-07-18T10:08:31;28.20;48.50
324;DHT22;149;51.094;17.002;2022-07-18T10:11:02;28.20;48.50
324;DHT22;149;51.094;17.002;2022-07-18T10:13:31;28.00;48.70
324;DHT22;149;51.094;17.002;2022-07-18T10:16:01;27.90;49.00
324;DHT22;149;51.094;17.002;2022-07-18T10:18:32;27.30;49.30
324;DHT22;149;51.094;17.002;2022-07-18T10:23:41;27.10;49.60
324;DHT22;149;51.094;17.002;2022-07-18T10:26:20;27.20;49.80
324;DHT22;149;51.094;17.002;2022-07-18T10:31:27;27.10;49.70
324;DHT22;149;51.094;17.002;2022-07-18T10:34:10;27.20;50.40
324;DHT22;149;51.094;17.002;2022-07-18T10:39:36;27.80;49.60
324;DHT22;149;51.094;17.002;2022-07-18T10:44:32;28.10;48.90
324;DHT22;149;51.094;17.002;2022-07-18T10:57:38;27.90;49.20
324;DHT22;149;51.094;17.002;2022-07-18T11:00:17;27.80;48.90
324;DHT22;149;51.094;17.002;2022-07-18T11:03:10;27.80;49.00
324;DHT22;149;51.094;17.002;2022-07-18T11:05:52;27.90;50.00
324;DHT22;149;51.094;17.002;2022-07-18T11:08:21;28.00;51.20
324;DHT22;149;51.094;17.002;2022-07-18T11:13:28;28.00;50.30
324;DHT22;149;51.094;17.002;2022-07-18T11:21:26;27.70;51.40
324;DHT22;149;51.094;17.002;2022-07-18T11:24:05;27.70;51.70
324;DHT22;149;51.094;17.002;2022-07-18T11:26:43;27.80;51.10
324;DHT22;149;51.094;17.002;2022-07-18T11:29:14;27.90;51.50
324;DHT22;149;51.094;17.002;2022-07-18T11:31:50;28.10;52.60
324;DHT22;149;51.094;17.002;2022-07-18T11:34:18;28.30;51.80
324;DHT22;149;51.094;17.002;2022-07-18T11:37:01;28.40;51.60
324;DHT22;149;51.094;17.002;2022-07-18T11:39:32;28.30;51.90
324;DHT22;149;51.094;17.002;2022-07-18T11:41:59;28.40;51.70
324;DHT22;149;51.094;17.002;2022-07-18T11:44:28;28.40;51.60
324;DHT22;149;51.094;17.002;2022-07-18T11:47:21;28.40;52.00
324;DHT22;149;51.094;17.002;2022-07-18T11:49:56;28.40;51.60
324;DHT22;149;51.094;17.002;2022-07-18T11:52:23;28.40;51.30
324;DHT22;149;51.094;17.002;2022-07-18T11:54:57;28.20;51.60
324;DHT22;149;51.094;17.002;2022-07-18T11:57:28;28.10;52.50
324;DHT22;149;51.094;17.002;2022-07-18T11:59:56;28.20;52.90
324;DHT22;149;51.094;17.002;2022-07-18T12:05:35;28.40;52.10
324;DHT22;149;51.094;17.002;2022-07-18T12:08:36;28.30;52.70
324;DHT22;149;51.094;17.002;2022-07-18T12:19:05;28.30;52.50
324;DHT22;149;51.094;17.002;2022-07-18T12:24:40;28.50;52.40
324;DHT22;149;51.094;17.002;2022-07-18T12:29:54;28.70;52.10
324;DHT22;149;51.094;17.002;2022-07-18T12:32:23;28.50;52.10
324;DHT22;149;51.094;17.002;2022-07-18T12:35:02;28.40;52.60
324;DHT22;149;51.094;17.002;2022-07-18T12:37:30;28.20;52.70
324;DHT22;149;51.094;17.002;2022-07-18T12:40:06;28.00;52.70
324;DHT22;149;51.094;17.002;2022-07-18T12:43:07;27.90;52.90
324;DHT22;149;51.094;17.002;2022-07-18T12:45:36;28.00;53.50
324;DHT22;149;51.094;17.002;2022-07-18T12:48:06;28.20;53.80
324;DHT22;149;51.094;17.002;2022-07-18T12:50:35;28.40;53.30
324;DHT22;149;51.094;17.002;2022-07-18T12:53:03;28.50;52.90
324;DHT22;149;51.094;17.002;2022-07-18T12:55:30;28.50;52.30
324;DHT22;149;51.094;17.002;2022-07-18T12:57:59;28.50;52.80
324;DHT22;149;51.094;17.002;2022-07-18T13:00:28;28.40;52.40
324;DHT22;149;51.094;17.002;2022-07-18T13:02:58;28.30;52.90
324;DHT22;149;51.094;17.002;2022-07-18T13:05:27;28.40;52.40
324;DHT22;149;51.094;17.002;2022-07-18T13:07:55;28.50;51.50
324;DHT22;149;51.094;17.002;2022-07-18T13:10:22;28.70;51.80
324;DHT22;149;51.094;17.002;2022-07-18T13:12:49;28.80;51.70
324;DHT22;149;51.094;17.002;2022-07-18T13:15:17;28.70;51.50
324;DHT22;149;51.094;17.002;2022-07-18T13:17:48;28.60;52.10
324;DHT22;149;51.094;17.002;2022-07-18T13:20:16;28.70;52.70
324;DHT22;149;51.094;17.002;2022-07-18T13:22:43;28.60;52.70
324;DHT22;149;51.094;17.002;2022-07-18T13:25:18;28.60;52.10
324;DHT22;149;51.094;17.002;2022-07-18T13:27:46;28.60;52.20
324;DHT22;149;51.094;17.002;2022-07-18T13:30:14;28.50;53.20
324;DHT22;149;51.094;17.002;2022-07-18T13:32:41;28.50;51.70
324;DHT22;149;51.094;17.002;2022-07-18T13:35:12;28.20;52.10
324;DHT22;149;51.094;17.002;2022-07-18T13:37:40;27.90;52.00
324;DHT22;149;51.094;17.002;2022-07-18T13:40:08;27.70;52.30
324;DHT22;149;51.094;17.002;2022-07-18T13:42:36;27.80;52.50
324;DHT22;149;51.094;17.002;2022-07-18T13:45:04;27.80;52.50
324;DHT22;149;51.094;17.002;2022-07-18T13:47:33;28.00;52.80
324;DHT22;149;51.094;17.002;2022-07-18T13:50:00;28.10;53.00
324;DHT22;149;51.094;17.002;2022-07-18T13:52:27;28.20;52.60
324;DHT22;149;51.094;17.002;2022-07-18T13:54:54;28.30;52.60
324;DHT22;149;51.094;17.002;2022-07-18T13:57:22;28.30;52.30
324;DHT22;149;51.094;17.002;2022-07-18T13:59:50;28.30;52.60
324;DHT22;149;51.094;17.002;2022-07-18T14:02:17;28.50;52.60
324;DHT22;149;51.094;17.002;2022-07-18T14:04:45;28.60;51.70
324;DHT22;149;51.094;17.002;2022-07-18T14:07:32;28.60;52.10
324;DHT22;149;51.094;17.002;2022-07-18T14:10:00;28.80;51.40
324;DHT22;149;51.094;17.002;2022-07-18T14:12:28;28.80;51.20
324;DHT22;149;51.094;17.002;2022-07-18T14:14:55;28.80;52.00
324;DHT22;149;51.094;17.002;2022-07-18T14:17:22;28.80;51.20
324;DHT22;149;51.094;17.002;2022-07-18T14:19:49;28.80;51.20
324;DHT22;149;51.094;17.002;2022-07-18T14:22:17;28.90;51.70
324;DHT22;149;51.094;17.002;2022-07-18T14:24:44;28.90;51.30
324;DHT22;149;51.094;17.002;2022-07-18T14:27:11;28.40;52.10
324;DHT22;149;51.094;17.002;2022-07-18T14:29:38;28.10;52.10
324;DHT22;149;51.094;17.002;2022-07-18T14:32:06;28.00;52.70
324;DHT22;149;51.094;17.002;2022-07-18T14:34:34;27.90;52.30
324;DHT22;149;51.094;17.002;2022-07-18T14:37:01;28.00;52.30
324;DHT22;149;51.094;17.002;2022-07-18T14:39:28;28.20;52.00
324;DHT22;149;51.094;17.002;2022-07-18T14:41:55;28.50;52.20
324;DHT22;149;51.094;17.002;2022-07-18T14:44:24;28.60;52.10
324;DHT22;149;51.094;17.002;2022-07-18T14:46:53;28.70;51.80
324;DHT22;149;51.094;17.002;2022-07-18T14:49:21;29.00;51.80
324;DHT22;149;51.094;17.002;2022-07-18T14:51:50;29.00;51.40
324;DHT22;149;51.094;17.002;2022-07-18T14:54:22;28.90;51.10
324;DHT22;149;51.094;17.002;2022-07-18T14:56:49;28.90;51.70
324;DHT22;149;51.094;17.002;2022-07-18T14:59:18;28.90;51.30
324;DHT22;149;51.094;17.002;2022-07-18T15:01:45;28.90;51.50
324;DHT22;149;51.094;17.002;2022-07-18T15:04:14;28.90;51.50
324;DHT22;149;51.094;17.002;2022-07-18T15:06:45;29.00;51.50
324;DHT22;149;51.094;17.002;2022-07-18T15:09:13;28.90;51.20
324;DHT22;149;51.094;17.002;2022-07-18T15:11:40;28.80;51.10
324;DHT22;149;51.094;17.002;2022-07-18T15:14:08;28.50;51.00
324;DHT22;149;51.094;17.002;2022-07-18T15:16:36;28.30;50.80
324;DHT22;149;51.094;17.002;2022-07-18T15:19:04;28.00;51.30
324;DHT22;149;51.094;17.002;2022-07-18T15:21:31;27.90;51.50
324;DHT22;149;51.094;17.002;2022-07-18T15:23:59;28.00;52.00
324;DHT22;149;51.094;17.002;2022-07-18T15:26:27;28.00;51.60
324;DHT22;149;51.094;17.002;2022-07-18T15:28:54;27.90;51.70
324;DHT22;149;51.094;17.002;2022-07-18T15:31:22;27.80;51.40
324;DHT22;149;51.094;17.002;2022-07-18T15:33:49;27.70;51.70
324;DHT22;149;51.094;17.002;2022-07-18T15:36:16;27.80;51.90
324;DHT22;149;51.094;17.002;2022-07-18T15:38:44;27.70;51.90
324;DHT22;149;51.094;17.002;2022-07-18T15:41:11;27.70;52.50
324;DHT22;149;51.094;17.002;2022-07-18T15:43:39;27.70;52.40
324;DHT22;149;51.094;17.002;2022-07-18T15:46:08;27.80;52.40
324;DHT22;149;51.094;17.002;2022-07-18T15:48:35;27.70;52.60
324;DHT22;149;51.094;17.002;2022-07-18T15:51:03;27.70;52.80
324;DHT22;149;51.094;17.002;2022-07-18T15:53:30;27.70;53.60
324;DHT22;149;51.094;17.002;2022-07-18T15:55:58;27.60;53.40
324;DHT22;149;51.094;17.002;2022-07-18T15:58:25;27.60;53.70
324;DHT22;149;51.094;17.002;2022-07-18T16:00:53;27.70;53.30
324;DHT22;149;51.094;17.002;2022-07-18T16:03:21;27.70;53.00
324;DHT22;149;51.094;17.002;2022-07-18T16:05:48;27.70;52.70
324;DHT22;149;51.094;17.002;2022-07-18T16:08:16;27.70;52.90
324;DHT22;149;51.094;17.002;2022-07-18T16:10:43;27.70;53.20
324;DHT22;149;51.094;17.002;2022-07-18T16:13:11;27.70;53.60
324;DHT22;149;51.094;17.002;2022-07-18T16:15:38;27.60;53.40
324;DHT22;149;51.094;17.002;2022-07-18T16:18:06;27.50;53.80
324;DHT22;149;51.094;17.002;2022-07-18T16:20:33;27.40;54.00
324;DHT22;149;51.094;17.002;2022-07-18T16:23:00;27.30;53.90
324;DHT22;149;51.094;17.002;2022-07-18T16:25:28;27.20;54.00
324;DHT22;149;51.094;17.002;2022-07-18T16:27:55;27.30;54.00
324;DHT22;149;51.094;17.002;2022-07-18T16:30:22;27.50;53.90
324;DHT22;149;51.094;17.002;2022-07-18T16:32:50;27.60;53.90
324;DHT22;149;51.094;17.002;2022-07-18T16:35:17;27.50;53.70
324;DHT22;149;51.094;17.002;2022-07-18T16:37:46;27.40;54.10
324;DHT22;149;51.094;17.002;2022-07-18T16:40:16;27.40;54.40
324;DHT22;149;51.094;17.002;2022-07-18T16:42:43;27.60;54.30
324;DHT22;149;51.094;17.002;2022-07-18T16:45:11;27.60;53.50
324;DHT22;149;51.094;17.002;2022-07-18T16:47:39;27.50;54.00
324;DHT22;149;51.094;17.002;2022-07-18T16:50:14;27.30;54.10
324;DHT22;149;51.094;17.002;2022-07-18T16:52:42;27.10;54.20
324;DHT22;149;51.094;17.002;2022-07-18T16:55:11;27.10;54.90
324;DHT22;149;51.094;17.002;2022-07-18T16:57:38;27.10;54.80
324;DHT22;149;51.094;17.002;2022-07-18T17:00:07;27.10;55.30
324;DHT22;149;51.094;17.002;2022-07-18T17:02:37;26.90;55.20
324;DHT22;149;51.094;17.002;2022-07-18T17:05:06;26.80;55.70
324;DHT22;149;51.094;17.002;2022-07-18T17:07:33;26.70;55.70
324;DHT22;149;51.094;17.002;2022-07-18T17:10:03;26.70;56.00
324;DHT22;149;51.094;17.002;2022-07-18T17:12:31;26.70;55.70
324;DHT22;149;51.094;17.002;2022-07-18T17:14:59;26.60;56.20
324;DHT22;149;51.094;17.002;2022-07-18T17:17:27;26.50;56.00
324;DHT22;149;51.094;17.002;2022-07-18T17:19:55;26.50;56.40
324;DHT22;149;51.094;17.002;2022-07-18T17:22:23;26.60;56.40
324;DHT22;149;51.094;17.002;2022-07-18T17:24:53;26.60;56.40
324;DHT22;149;51.094;17.002;2022-07-18T17:27:21;26.50;56.80
324;DHT22;149;51.094;17.002;2022-07-18T17:29:48;26.40;57.20